Moffat, Colorado
Current Conditions -  °F | °C
As of 10:12 PM on Thursday 30 Oct 2014 (Local Time) from K04V Reporting Station
Clear Clear  
Wind Chill: 31°   Ceiling: Unl
Heat Index: 37°   Visibility: 10mi
Dew Point: 18°   Wind: 9mph
Humidity: 45%   Direction: 330°NNW
Pressure: 30.41"   Gusts: NA
Location:  38°N, 105.91°W
Report Text: K04V 310412Z AUTO 33008KT 10SM CLR 03/M08 A3041 RMK AO2
Loading
Personal Weather Stations






























Interactive Weather Map
Tropical Storm Tracking
New forecast layout! Learn more

10-Day Weather Forecast

Advertisements
Track Severe Weather on mobile